Terminal Aerodrome Forecast
Issued by NWS

Home | Current Version | Previous Version | Text Only | Print | Product List | Glossary On
Versions: 1 2 3 4 5 6 7 8 9 10 11 12 13 14 15 16 17 18 19 20 21 22 23 24 25 26
000
FTPQ31 PGUM 081120
TAFGUM
TAF

TAF
PTRO 081120Z 0812/0912 08006KT P6SM VCSH FEW016 SCT030 BKN120
      TEMPO 0816/0820 4SM SHRA OVC016=

USA.gov is the U.S. government's official web portal to all federal, state and local government web resources and services.